Tonka Bay, Minnesota
Current Conditions -  °F | °C
As of 11:08 PM on Sunday 21 Dec 2014 (Local Time) from KFCM Reporting Station
Haze Haze  
Wind Chill: -1°   Ceiling: 600
Heat Index:   Visibility: 2.5mi
Dew Point:   Wind: 12mph
Humidity: 93%   Direction: 160°SSE
Pressure: 29.7"   Gusts: NA
Location:  44.8924°N, 93.5895°W
Report Text: KFCM 220508Z AUTO 16010KT 2 1/2SM BR OVC006 03/02 A2970 RMK AO2 CIG 004V009 T00330022
Loading
Personal Weather Stations






























Interactive Weather Map New forecast layout! Learn more

10-Day Weather Forecast

Advertisements
Track Severe Weather on mobile